Ning Yue Hai — VRQL5 — position and weather

sailwx.info

Track history (hours):
 
Tides and Currents Weather Stations Pressure Air Temp Water Temp Dewpoint Dewpoint Depression Visibility Wind Speed Wind Dir Waves Ship Positions

Ning Yue Hai

Last reported at 2018-Jan-21 16:15 UTC. Time now 2018-Feb-18 20:25 UTC.
Position N 33°39' W 007°37'.
Warning: this ship's position is 28 days out of date.

Length 199 m; draft 9 m.

Type: Cargo ship. MMSI: 477023200.

Date/timePositionNaut miles runAvg speedWind from/ knotsBaromVisibWave heightAir tempDewpointWater temp
2018-Jan-21 16:15N 33°39' W 007°37'0 0.0
2018-Jan-21 16:00N 33°39' W 007°37'0 0.0
2018-Jan-21 15:30N 33°39' W 007°37'157 3.7
2018-Jan-19 21:20N 35°52' W 005°55'712.2
2018-Jan-19 20:47N 35°56' W 005°48'411.0
2018-Jan-19 20:24N 35°57' W 005°43'410.8
2018-Jan-19 20:00N 35°57' W 005°37'510.5
2018-Jan-19 19:30N 35°59' W 005°32'510.8
2018-Jan-19 19:00N 36°01' W 005°25'611.2
2018-Jan-19 18:29N 36°07' W 005°23'2 3.5
2018-Jan-19 18:00N 36°09' W 005°23'0 0.6
2018-Jan-19 17:30N 36°08' W 005°23'0 0.0
2018-Jan-19 17:00N 36°08' W 005°23'0 0.0
2018-Jan-19 16:30N 36°08' W 005°23'0 0.0
2018-Jan-19 16:00N 36°08' W 005°23'0 0.0
2018-Jan-19 15:30N 36°08' W 005°23'0 0.1
2018-Jan-19 15:00N 36°08' W 005°23'0 0.3
2018-Jan-19 14:30N 36°08' W 005°23'0 0.1
2018-Jan-19 14:00N 36°08' W 005°23'0 0.0
2018-Jan-19 13:30N 36°08' W 005°23'0 0.1
2018-Jan-19 12:57N 36°08' W 005°23'0 0.1
2018-Jan-19 12:30N 36°08' W 005°23'0 0.2
2018-Jan-19 12:00N 36°08' W 005°23'0 0.2
2018-Jan-19 11:09N 36°08' W 005°23'0 0.1
2018-Jan-19 11:00N 36°08' W 005°23'0 0.0
2018-Jan-19 10:27N 36°08' W 005°23'0 0.0
2018-Jan-19 10:00N 36°08' W 005°23'0 0.0
2018-Jan-19 09:30N 36°08' W 005°23'0 0.0
2018-Jan-19 08:57N 36°08' W 005°23'0 0.0
2018-Jan-19 08:30N 36°08' W 005°23'0 0.0
2018-Jan-19 07:54N 36°08' W 005°23'0 0.0
2018-Jan-19 07:21N 36°08' W 005°23'0 0.1
2018-Jan-19 06:57N 36°08' W 005°23'0 0.0
2018-Jan-19 06:30N 36°08' W 005°23'0 0.0
2018-Jan-19 06:00N 36°08' W 005°23'0 0.0
2018-Jan-19 05:30N 36°08' W 005°23'0 0.1
2018-Jan-19 05:00N 36°08' W 005°23'0 0.3
2018-Jan-19 04:27N 36°08' W 005°23'0 0.1
2018-Jan-19 04:00N 36°08' W 005°23'0 0.2
2018-Jan-19 03:30N 36°08' W 005°23'0 0.1
2018-Jan-19 03:00N 36°08' W 005°23'0 0.0
2018-Jan-19 02:30N 36°08' W 005°23'0 0.0
2018-Jan-19 02:00N 36°08' W 005°23'0 0.4
2018-Jan-19 01:30N 36°08' W 005°23'1 2.8
2018-Jan-19 01:00N 36°07' W 005°22'3 5.1
2018-Jan-19 00:30N 36°06' W 005°20'4 8.7
2018-Jan-19 00:01N 36°08' W 005°15'612.7
2018-Jan-18 23:31N 36°12' W 005°09'2 4.1
2018-Jan-18 23:00N 36°13' W 005°06'1 2.4
2018-Jan-18 22:30N 36°12' W 005°08'5 9.6
2018-Jan-18 22:01N 36°09' W 005°12'0 0.9
2018-Jan-18 21:30N 36°09' W 005°12'1 1.3
2018-Jan-18 21:00N 36°09' W 005°12'1 1.5
2018-Jan-18 20:31N 36°09' W 005°11'1 1.4
2018-Jan-18 20:00N 36°09' W 005°10'1 1.1
2018-Jan-18 19:30N 36°09' W 005°09'0 0.8
2018-Jan-18 19:00N 36°09' W 005°09'3 5.5
2018-Jan-18 18:30N 36°06' W 005°09'1 1.4
2018-Jan-18 18:00N 36°05' W 005°09'1 2.0
2018-Jan-18 17:27N 36°06' W 005°09'2 2.3
2018-Jan-18 16:39N 36°08' W 005°08'0 2.2
2018-Jan-18 16:30N 36°08' W 005°08'1 2.0
2018-Jan-18 16:01N 36°09' W 005°08'1 1.9
2018-Jan-18 15:30N 36°10' W 005°08'1 1.4
2018-Jan-18 15:00N 36°10' W 005°08'1 1.7
2018-Jan-18 14:31N 36°09' W 005°08'1 1.7
2018-Jan-18 14:00N 36°08' W 005°08'3 5.4
2018-Jan-18 13:31N 36°06' W 005°10'1 2.0
2018-Jan-18 13:00N 36°06' W 005°12'1 1.9
2018-Jan-18 12:31N 36°07' W 005°11'1 1.5
2018-Jan-18 12:00N 36°07' W 005°10'3 5.6
2018-Jan-18 11:31N 36°07' W 005°07'5 9.7
2018-Jan-18 11:00N 36°08' W 005°01'611.5
2018-Jan-18 10:31N 36°08' W 004°54'611.7
2018-Jan-18 10:00N 36°09' W 004°46'  
2018-Jan-12 09:34N 44°30' E 012°25'  
Track history (hours):
 
Tides and Currents Weather Stations Pressure Air Temp Water Temp Dewpoint Dewpoint Depression Visibility Wind Speed Wind Dir Waves Ship Positions

Ning Yue Hai

Last reported at 2018-Jan-21 16:15 UTC. Time now 2018-Feb-18 20:25 UTC.
Position N 33°39' W 007°37'.
Warning: this ship's position is 28 days out of date.

Length 199 m; draft 9 m.

Type: Cargo ship. MMSI: 477023200.

Date/timePositionNaut miles runAvg speedWind from/ knotsBaromVisibWave heightAir tempDewpointWater temp
2018-Jan-21 16:15N 33°39' W 007°37'0 0.0
2018-Jan-21 16:00N 33°39' W 007°37'0 0.0
2018-Jan-21 15:30N 33°39' W 007°37'157 3.7
2018-Jan-19 21:20N 35°52' W 005°55'712.2
2018-Jan-19 20:47N 35°56' W 005°48'411.0
2018-Jan-19 20:24N 35°57' W 005°43'410.8
2018-Jan-19 20:00N 35°57' W 005°37'510.5
2018-Jan-19 19:30N 35°59' W 005°32'510.8
2018-Jan-19 19:00N 36°01' W 005°25'611.2
2018-Jan-19 18:29N 36°07' W 005°23'2 3.5
2018-Jan-19 18:00N 36°09' W 005°23'0 0.6
2018-Jan-19 17:30N 36°08' W 005°23'0 0.0
2018-Jan-19 17:00N 36°08' W 005°23'0 0.0
2018-Jan-19 16:30N 36°08' W 005°23'0 0.0
2018-Jan-19 16:00N 36°08' W 005°23'0 0.0
2018-Jan-19 15:30N 36°08' W 005°23'0 0.1
2018-Jan-19 15:00N 36°08' W 005°23'0 0.3
2018-Jan-19 14:30N 36°08' W 005°23'0 0.1
2018-Jan-19 14:00N 36°08' W 005°23'0 0.0
2018-Jan-19 13:30N 36°08' W 005°23'0 0.1
2018-Jan-19 12:57N 36°08' W 005°23'0 0.1
2018-Jan-19 12:30N 36°08' W 005°23'0 0.2
2018-Jan-19 12:00N 36°08' W 005°23'0 0.2
2018-Jan-19 11:09N 36°08' W 005°23'0 0.1
2018-Jan-19 11:00N 36°08' W 005°23'0 0.0
2018-Jan-19 10:27N 36°08' W 005°23'0 0.0
2018-Jan-19 10:00N 36°08' W 005°23'0 0.0
2018-Jan-19 09:30N 36°08' W 005°23'0 0.0
2018-Jan-19 08:57N 36°08' W 005°23'0 0.0
2018-Jan-19 08:30N 36°08' W 005°23'0 0.0
2018-Jan-19 07:54N 36°08' W 005°23'0 0.0
2018-Jan-19 07:21N 36°08' W 005°23'0 0.1
2018-Jan-19 06:57N 36°08' W 005°23'0 0.0
2018-Jan-19 06:30N 36°08' W 005°23'0 0.0
2018-Jan-19 06:00N 36°08' W 005°23'0 0.0
2018-Jan-19 05:30N 36°08' W 005°23'0 0.1
2018-Jan-19 05:00N 36°08' W 005°23'0 0.3
2018-Jan-19 04:27N 36°08' W 005°23'0 0.1
2018-Jan-19 04:00N 36°08' W 005°23'0 0.2
2018-Jan-19 03:30N 36°08' W 005°23'0 0.1
2018-Jan-19 03:00N 36°08' W 005°23'0 0.0
2018-Jan-19 02:30N 36°08' W 005°23'0 0.0
2018-Jan-19 02:00N 36°08' W 005°23'0 0.4
2018-Jan-19 01:30N 36°08' W 005°23'1 2.8
2018-Jan-19 01:00N 36°07' W 005°22'3 5.1
2018-Jan-19 00:30N 36°06' W 005°20'4 8.7
2018-Jan-19 00:01N 36°08' W 005°15'612.7
2018-Jan-18 23:31N 36°12' W 005°09'2 4.1
2018-Jan-18 23:00N 36°13' W 005°06'1 2.4
2018-Jan-18 22:30N 36°12' W 005°08'5 9.6
2018-Jan-18 22:01N 36°09' W 005°12'0 0.9
2018-Jan-18 21:30N 36°09' W 005°12'1 1.3
2018-Jan-18 21:00N 36°09' W 005°12'1 1.5
2018-Jan-18 20:31N 36°09' W 005°11'1 1.4
2018-Jan-18 20:00N 36°09' W 005°10'1 1.1
2018-Jan-18 19:30N 36°09' W 005°09'0 0.8
2018-Jan-18 19:00N 36°09' W 005°09'3 5.5
2018-Jan-18 18:30N 36°06' W 005°09'1 1.4
2018-Jan-18 18:00N 36°05' W 005°09'1 2.0
2018-Jan-18 17:27N 36°06' W 005°09'2 2.3
2018-Jan-18 16:39N 36°08' W 005°08'0 2.2
2018-Jan-18 16:30N 36°08' W 005°08'1 2.0
2018-Jan-18 16:01N 36°09' W 005°08'1 1.9
2018-Jan-18 15:30N 36°10' W 005°08'1 1.4
2018-Jan-18 15:00N 36°10' W 005°08'1 1.7
2018-Jan-18 14:31N 36°09' W 005°08'1 1.7
2018-Jan-18 14:00N 36°08' W 005°08'3 5.4
2018-Jan-18 13:31N 36°06' W 005°10'1 2.0
2018-Jan-18 13:00N 36°06' W 005°12'1 1.9
2018-Jan-18 12:31N 36°07' W 005°11'1 1.5
2018-Jan-18 12:00N 36°07' W 005°10'3 5.6
2018-Jan-18 11:31N 36°07' W 005°07'5 9.7
2018-Jan-18 11:00N 36°08' W 005°01'611.5
2018-Jan-18 10:31N 36°08' W 004°54'611.7
2018-Jan-18 10:00N 36°09' W 004°46'  
2018-Jan-12 09:34N 44°30' E 012°25'  

Dump ship's entire track history